Terminal Aerodrome Forecast
Issued by NWS

Home | Current Version | Previous Version | Text Only | Print | Product List | Glossary On
Versions: 1 2 3 4 5 6 7 8 9 10 11 12 13 14 15 16 17 18 19 20
000
FTUS46 KEKA 272025 CCA
TAFCEC
TAF COR
KCEC 272025Z 2720/2818 31009KT P6SM VCTS FEW012 SCT025CB BKN050
      TEMPO 2721/2724 31012KT 6SM -SHRA SCT012 BKN021 OVC050
     FM280000 29010KT P6SM VCTS BKN015 OVC025CB
      TEMPO 2800/2804 6SM -SHRA SCT015 SCT025 BKN035
     FM280800 10003KT P6SM VCSH OVC050=

USA.gov is the U.S. government's official web portal to all federal, state and local government web resources and services.